Time;durP1;ratioP1;P1;durP2;ratioP2;P2;SDS_P1;SDS_P2;PMS_P1;PMS_P2;Temp;Humidity;BMP_temperature;BMP_pressure;BME280_temperature;BME280_humidity;BME280_pressure;Samples;Min_cycle;Max_cycle;Signal;HPM_P1;HPM_P2
2023/10/26 00:01:12;;;;;;;18.88;14.90;;;10.80;99.90;;;;;;5051719;28;20029;-57
2023/10/26 00:03:38;;;;;;;17.63;13.65;;;10.80;99.90;;;;;;5051349;28;20469;-57
2023/10/26 00:06:03;;;;;;;21.15;14.95;;;10.80;99.90;;;;;;5051169;28;20321;-57
2023/10/26 00:08:29;;;;;;;18.58;14.75;;;10.80;99.90;;;;;;5051288;28;20537;-57
2023/10/26 00:10:55;;;;;;;18.70;14.40;;;10.80;99.90;;;;;;5051711;28;20130;-57
2023/10/26 00:13:21;;;;;;;20.50;16.55;;;10.80;99.90;;;;;;5051432;28;20100;-57
2023/10/26 00:15:46;;;;;;;24.70;18.52;;;10.80;99.90;;;;;;5051673;28;20183;-57
2023/10/26 00:18:13;;;;;;;20.55;15.98;;;10.80;99.90;;;;;;5049955;28;20550;-57
2023/10/26 00:20:38;;;;;;;23.13;16.05;;;10.80;99.90;;;;;;5051504;28;20478;-57
2023/10/26 00:23:06;;;;;;;22.98;19.15;;;10.80;99.90;;;;;;5051563;28;20036;-57
2023/10/26 00:25:31;;;;;;;25.20;17.38;;;10.80;99.90;;;;;;5051154;28;20017;-57
2023/10/26 00:27:58;;;;;;;26.23;18.77;;;10.80;99.90;;;;;;5051061;28;20029;-57
2023/10/26 00:30:24;;;;;;;25.23;18.95;;;10.80;99.90;;;;;;5051208;28;20017;-56
2023/10/26 00:32:50;;;;;;;22.58;17.55;;;10.80;99.90;;;;;;5049932;28;20020;-57
2023/10/26 00:35:16;;;;;;;23.58;17.90;;;10.80;99.90;;;;;;5050907;28;20017;-56
2023/10/26 00:37:41;;;;;;;29.20;19.77;;;10.80;99.90;;;;;;5049490;28;20021;-56
2023/10/26 00:40:07;;;;;;;24.55;19.25;;;10.80;99.90;;;;;;5050509;28;20029;-56
2023/10/26 00:42:33;;;;;;;23.60;18.70;;;10.70;99.90;;;;;;5048613;28;20096;-56
2023/10/26 00:44:58;;;;;;;23.90;19.05;;;10.80;99.90;;;;;;5050687;28;20036;-57
2023/10/26 00:47:25;;;;;;;27.73;20.25;;;10.80;99.90;;;;;;5047313;28;20033;-57
2023/10/26 00:49:51;;;;;;;27.52;17.67;;;10.80;99.90;;;;;;5039089;28;20025;-57
2023/10/26 00:52:17;;;;;;;28.23;21.92;;;10.80;99.90;;;;;;5040174;28;20218;-57
2023/10/26 00:54:43;;;;;;;27.70;20.00;;;10.80;99.90;;;;;;5040482;28;20126;-57
2023/10/26 00:57:09;;;;;;;31.65;21.50;;;10.80;99.90;;;;;;5042962;28;20029;-56
2023/10/26 00:59:35;;;;;;;28.90;21.27;;;10.70;99.90;;;;;;5037449;28;20026;-57
2023/10/26 01:02:02;;;;;;;26.55;20.63;;;10.70;99.90;;;;;;5050494;28;20701;-57
2023/10/26 01:04:28;;;;;;;31.77;22.08;;;10.70;99.90;;;;;;5049189;28;20115;-57
2023/10/26 01:06:54;;;;;;;28.15;21.08;;;10.80;99.90;;;;;;5050124;28;20497;-57
2023/10/26 01:09:20;;;;;;;28.98;21.67;;;10.70;99.90;;;;;;5049102;28;20032;-56
2023/10/26 01:11:46;;;;;;;27.92;19.83;;;10.80;99.90;;;;;;5041921;28;20013;-56
2023/10/26 01:14:12;;;;;;;27.35;20.98;;;10.70;99.90;;;;;;5050414;28;20017;-56
2023/10/26 01:16:37;;;;;;;31.35;21.83;;;10.70;99.90;;;;;;5050233;28;20036;-56
2023/10/26 01:19:04;;;;;;;28.88;22.40;;;10.70;99.90;;;;;;5048977;28;20394;-56
2023/10/26 01:21:30;;;;;;;26.05;19.48;;;10.70;99.90;;;;;;5050048;28;20032;-57
2023/10/26 01:23:56;;;;;;;30.23;21.33;;;10.70;99.90;;;;;;5049950;28;20029;-56
2023/10/26 01:26:22;;;;;;;30.38;21.20;;;10.70;99.90;;;;;;5049832;28;20040;-56
2023/10/26 01:28:47;;;;;;;27.92;20.42;;;10.60;99.90;;;;;;5050394;28;20378;-56
2023/10/26 01:31:17;;;;;;;29.75;21.65;;;10.70;99.90;;;;;;5050304;28;20021;-56
2023/10/26 01:33:43;;;;;;;27.67;20.77;;;10.60;99.90;;;;;;5049778;28;20053;-57
2023/10/26 01:36:09;;;;;;;27.52;19.77;;;10.60;99.90;;;;;;5049764;28;20029;-56
2023/10/26 01:38:35;;;;;;;28.13;21.13;;;10.60;99.90;;;;;;5041220;28;20490;-57
2023/10/26 01:41:00;;;;;;;30.40;22.55;;;10.60;99.90;;;;;;5049783;28;20055;-56
2023/10/26 01:43:26;;;;;;;30.00;22.13;;;10.60;99.90;;;;;;5049945;28;20086;-56
2023/10/26 01:45:52;;;;;;;28.40;20.80;;;10.60;99.90;;;;;;5049774;28;20028;-57
2023/10/26 01:48:18;;;;;;;34.90;23.70;;;10.60;99.90;;;;;;5049555;28;20082;-56
2023/10/26 01:50:43;;;;;;;29.60;21.48;;;10.60;99.90;;;;;;5049739;28;20474;-56
2023/10/26 01:53:09;;;;;;;24.75;18.63;;;10.60;99.90;;;;;;5049441;28;20033;-56
2023/10/26 01:55:34;;;;;;;35.92;22.15;;;10.60;99.90;;;;;;5047088;28;20025;-57
2023/10/26 01:58:00;;;;;;;28.95;21.77;;;10.60;99.90;;;;;;5049347;28;20037;-56
2023/10/26 02:00:25;;;;;;;29.88;21.73;;;10.60;99.90;;;;;;5049785;28;20029;-57
2023/10/26 02:02:51;;;;;;;28.55;20.05;;;10.60;99.90;;;;;;5049200;28;20095;-56
2023/10/26 02:05:16;;;;;;;36.15;22.88;;;10.60;99.90;;;;;;5049107;28;20216;-57
2023/10/26 02:07:43;;;;;;;30.20;20.85;;;10.60;99.90;;;;;;5049057;28;20025;-56
2023/10/26 02:10:12;;;;;;;30.48;22.15;;;10.60;99.90;;;;;;5047201;28;20620;-56
2023/10/26 02:12:38;;;;;;;30.48;20.30;;;10.60;99.90;;;;;;5048617;28;20100;-56
2023/10/26 02:15:04;;;;;;;32.85;21.77;;;10.60;99.90;;;;;;5048418;28;20113;-57
2023/10/26 02:17:29;;;;;;;29.45;21.63;;;10.50;99.90;;;;;;5046867;28;20032;-56
2023/10/26 02:19:55;;;;;;;30.83;22.40;;;10.60;99.90;;;;;;5047316;28;20025;-56
2023/10/26 02:22:20;;;;;;;33.97;22.45;;;10.50;99.90;;;;;;5047692;28;20017;-56
2023/10/26 02:24:46;;;;;;;32.00;22.45;;;10.50;99.90;;;;;;5048312;28;20544;-57
2023/10/26 02:27:11;;;;;;;32.35;21.52;;;10.50;99.90;;;;;;5049104;28;20032;-56
2023/10/26 02:29:37;;;;;;;30.23;21.80;;;10.50;99.90;;;;;;5047770;28;20025;-57
2023/10/26 02:32:03;;;;;;;33.00;22.98;;;10.50;99.90;;;;;;5048944;28;20021;-57
2023/10/26 02:34:29;;;;;;;31.92;22.48;;;10.50;99.90;;;;;;5048913;28;20048;-57
2023/10/26 02:36:57;;;;;;;32.58;22.30;;;10.50;99.90;;;;;;5048694;28;20336;-55
2023/10/26 02:39:22;;;;;;;32.90;22.48;;;10.50;99.90;;;;;;5047643;28;20041;-55
2023/10/26 02:41:48;;;;;;;36.25;23.95;;;10.50;99.90;;;;;;5049264;28;20029;-57
2023/10/26 02:44:13;;;;;;;33.55;23.65;;;10.50;99.90;;;;;;5048859;28;20029;-58
2023/10/26 02:46:39;;;;;;;30.15;21.52;;;10.50;99.90;;;;;;5048658;28;20483;-58
2023/10/26 02:49:04;;;;;;;31.90;22.25;;;10.50;99.90;;;;;;5048949;28;20048;-58
2023/10/26 02:51:30;;;;;;;31.25;21.25;;;10.50;99.90;;;;;;5049155;28;20067;-57
2023/10/26 02:53:55;;;;;;;33.17;23.08;;;10.50;99.90;;;;;;5048698;28;20625;-57
2023/10/26 02:56:21;;;;;;;29.65;21.10;;;10.50;99.90;;;;;;5047211;28;20112;-57
2023/10/26 02:58:47;;;;;;;30.08;21.25;;;10.50;99.90;;;;;;5047389;28;20028;-57
2023/10/26 03:01:13;;;;;;;32.72;22.40;;;10.50;99.90;;;;;;5048786;28;20116;-57
2023/10/26 03:03:38;;;;;;;34.78;22.25;;;10.50;99.90;;;;;;5048791;28;20113;-57
2023/10/26 03:06:04;;;;;;;30.40;20.30;;;10.40;99.90;;;;;;5051574;28;20178;-58
2023/10/26 03:08:29;;;;;;;30.20;20.42;;;10.40;99.90;;;;;;5052758;28;20025;-57
2023/10/26 03:10:55;;;;;;;28.17;20.65;;;10.50;99.90;;;;;;5052728;28;20024;-57
2023/10/26 03:13:20;;;;;;;31.75;21.55;;;10.50;99.90;;;;;;5052652;28;20091;-57
2023/10/26 03:15:46;;;;;;;32.05;20.45;;;10.50;99.90;;;;;;5052536;28;20108;-57
2023/10/26 03:18:11;;;;;;;28.83;20.20;;;10.40;99.90;;;;;;5052711;28;20444;-57
2023/10/26 03:20:37;;;;;;;28.83;20.55;;;10.40;99.90;;;;;;5051072;28;20467;-57
2023/10/26 03:23:03;;;;;;;30.33;21.30;;;10.50;99.90;;;;;;5052209;28;20476;-57
2023/10/26 03:25:28;;;;;;;29.02;19.00;;;10.50;99.90;;;;;;5048321;28;20068;-57
2023/10/26 03:27:54;;;;;;;28.92;19.70;;;10.50;99.90;;;;;;5048166;28;20534;-57
2023/10/26 03:30:20;;;;;;;24.38;17.90;;;10.50;99.90;;;;;;5042719;28;20060;-57
2023/10/26 03:32:45;;;;;;;26.75;18.67;;;10.40;99.90;;;;;;5041514;28;20476;-58
2023/10/26 03:35:11;;;;;;;26.05;18.00;;;10.40;99.90;;;;;;5040197;28;20018;-57
2023/10/26 03:37:37;;;;;;;27.85;18.73;;;10.50;99.90;;;;;;5039178;28;20399;-57
2023/10/26 03:40:05;;;;;;;26.45;19.38;;;10.50;99.90;;;;;;5051886;28;20029;-57
2023/10/26 03:42:30;;;;;;;30.02;19.38;;;10.50;99.90;;;;;;5044824;28;20025;-58
2023/10/26 03:44:56;;;;;;;25.15;17.77;;;10.40;99.90;;;;;;5051892;28;20048;-57
2023/10/26 03:47:22;;;;;;;27.35;18.65;;;10.40;99.90;;;;;;5051750;28;20051;-57
2023/10/26 03:49:51;;;;;;;28.10;19.85;;;10.40;99.90;;;;;;5051927;28;20025;-57
2023/10/26 03:52:20;;;;;;;29.23;19.20;;;10.50;99.90;;;;;;5051737;28;20051;-57
2023/10/26 03:54:46;;;;;;;23.70;17.15;;;10.40;99.90;;;;;;5051614;28;20040;-58
2023/10/26 03:57:12;;;;;;;24.85;18.08;;;10.50;99.90;;;;;;5051564;28;20505;-58
2023/10/26 03:59:37;;;;;;;26.58;17.98;;;10.40;99.90;;;;;;5051567;28;20029;-58
2023/10/26 04:02:03;;;;;;;27.58;18.73;;;10.50;99.90;;;;;;5050251;28;20118;-58
2023/10/26 04:04:29;;;;;;;22.92;16.58;;;10.50;99.90;;;;;;5051406;28;20025;-58
2023/10/26 04:06:54;;;;;;;26.50;18.88;;;10.50;99.90;;;;;;5051235;28;20024;-58
2023/10/26 04:09:20;;;;;;;24.38;15.68;;;10.40;99.90;;;;;;5051412;28;20033;-58
2023/10/26 04:11:45;;;;;;;26.27;18.10;;;10.50;99.90;;;;;;5051348;28;20056;-58
2023/10/26 04:14:11;;;;;;;21.75;16.65;;;10.40;99.90;;;;;;5051313;28;20025;-58
2023/10/26 04:16:37;;;;;;;22.13;15.88;;;10.50;99.90;;;;;;5049800;28;20029;-58
2023/10/26 04:19:02;;;;;;;23.30;16.17;;;10.50;99.90;;;;;;5051319;28;20032;-58
2023/10/26 04:21:28;;;;;;;27.20;17.95;;;10.50;99.90;;;;;;5051289;28;20048;-58
2023/10/26 04:23:53;;;;;;;23.95;16.58;;;10.40;99.90;;;;;;5041278;28;20037;-58
2023/10/26 04:26:19;;;;;;;21.48;15.85;;;10.40;99.90;;;;;;5040153;28;20021;-58
2023/10/26 04:28:44;;;;;;;23.40;16.65;;;10.40;99.90;;;;;;5041377;28;20013;-58
2023/10/26 04:31:10;;;;;;;21.83;14.77;;;10.50;99.90;;;;;;5045046;28;20020;-58
2023/10/26 04:33:36;;;;;;;21.08;15.52;;;10.40;99.90;;;;;;5050842;28;20028;-58
2023/10/26 04:36:04;;;;;;;19.52;14.32;;;10.50;99.90;;;;;;5050992;28;20021;-58
2023/10/26 04:38:30;;;;;;;21.15;14.85;;;10.50;99.90;;;;;;5051303;28;20498;-58
2023/10/26 04:40:57;;;;;;;19.38;14.05;;;10.50;99.90;;;;;;5051006;28;20061;-58
2023/10/26 04:43:23;;;;;;;22.33;15.80;;;10.40;99.90;;;;;;5050762;28;20036;-58
2023/10/26 04:45:48;;;;;;;19.92;14.98;;;10.50;99.90;;;;;;5050903;28;20098;-58
2023/10/26 04:48:14;;;;;;;22.35;15.57;;;10.50;99.90;;;;;;5049455;28;20016;-58
2023/10/26 04:50:39;;;;;;;23.33;14.05;;;10.40;99.90;;;;;;5050817;28;20048;-58
2023/10/26 04:53:05;;;;;;;18.73;14.30;;;10.40;99.90;;;;;;5050697;28;20320;-58
2023/10/26 04:55:33;;;;;;;18.75;14.23;;;10.40;99.90;;;;;;5050723;28;20060;-58
2023/10/26 04:57:59;;;;;;;19.02;13.77;;;10.50;99.90;;;;;;5049239;28;20063;-58
2023/10/26 05:00:26;;;;;;;20.77;14.68;;;10.50;99.90;;;;;;5050568;28;20520;-58
2023/10/26 05:02:52;;;;;;;18.55;13.80;;;10.40;99.90;;;;;;5050287;28;20048;-59
2023/10/26 05:05:18;;;;;;;18.40;13.93;;;10.40;99.90;;;;;;5050925;28;20029;-58
2023/10/26 05:07:44;;;;;;;19.55;14.57;;;10.40;99.90;;;;;;5048964;28;20107;-58
2023/10/26 05:10:10;;;;;;;19.45;14.10;;;10.40;99.90;;;;;;5050451;28;20498;-58
2023/10/26 05:12:35;;;;;;;17.17;12.80;;;10.40;99.90;;;;;;5049031;28;20299;-57
2023/10/26 05:15:01;;;;;;;19.40;14.15;;;10.40;99.90;;;;;;5048897;28;20065;-57
2023/10/26 05:17:26;;;;;;;21.30;14.90;;;10.40;99.90;;;;;;5049822;28;20083;-58
2023/10/26 05:19:52;;;;;;;20.23;14.55;;;10.40;99.90;;;;;;5048818;28;20102;-57
2023/10/26 05:22:19;;;;;;;16.70;12.95;;;10.40;99.90;;;;;;5050216;28;20478;-58
2023/10/26 05:24:45;;;;;;;19.70;13.93;;;10.40;99.90;;;;;;5049797;28;20052;-58
2023/10/26 05:27:10;;;;;;;17.48;12.77;;;10.40;99.90;;;;;;5046930;28;20071;-58
2023/10/26 05:29:36;;;;;;;17.90;13.48;;;10.40;99.90;;;;;;5049273;28;20021;-58
2023/10/26 05:32:02;;;;;;;19.40;13.18;;;10.40;99.90;;;;;;5049467;28;20036;-58
2023/10/26 05:34:28;;;;;;;16.10;12.07;;;10.40;99.90;;;;;;5049078;28;20029;-57
2023/10/26 05:36:53;;;;;;;15.50;12.15;;;10.40;99.90;;;;;;5048787;28;20044;-57
2023/10/26 05:39:19;;;;;;;16.98;12.25;;;10.40;99.90;;;;;;5049577;28;20033;-57
2023/10/26 05:41:45;;;;;;;17.70;12.85;;;10.50;99.90;;;;;;5049368;28;20494;-57
2023/10/26 05:44:10;;;;;;;16.38;11.80;;;10.50;99.90;;;;;;5049269;28;20029;-57
2023/10/26 05:46:36;;;;;;;15.30;11.90;;;10.50;99.90;;;;;;5047643;28;20390;-57
2023/10/26 05:49:02;;;;;;;14.20;11.20;;;10.50;99.90;;;;;;5049764;28;20393;-57
2023/10/26 05:51:29;;;;;;;15.68;11.95;;;10.50;99.90;;;;;;5049646;28;20017;-57
2023/10/26 05:53:54;;;;;;;17.35;13.15;;;10.50;99.90;;;;;;5049568;28;20021;-57
2023/10/26 05:56:20;;;;;;;15.45;11.93;;;10.50;99.90;;;;;;5049567;28;20508;-57
2023/10/26 05:58:50;;;;;;;15.80;11.90;;;10.50;99.90;;;;;;5043902;28;20025;-57
2023/10/26 06:01:16;;;;;;;14.47;11.27;;;10.50;99.90;;;;;;5041720;28;20401;-57
2023/10/26 06:03:42;;;;;;;15.43;11.23;;;10.40;99.90;;;;;;5049479;28;20855;-57
2023/10/26 06:06:07;;;;;;;14.20;11.02;;;10.50;99.90;;;;;;5048205;28;20112;-57
2023/10/26 06:08:33;;;;;;;18.10;13.30;;;10.40;99.90;;;;;;5048969;28;20366;-57
2023/10/26 06:10:58;;;;;;;16.92;12.93;;;10.50;99.90;;;;;;5049383;28;20395;-57
2023/10/26 06:13:24;;;;;;;14.68;11.50;;;10.40;99.90;;;;;;5048849;28;20028;-57
2023/10/26 06:15:50;;;;;;;16.80;12.45;;;10.40;99.90;;;;;;5048943;28;20029;-57
2023/10/26 06:18:16;;;;;;;14.88;11.75;;;10.50;99.90;;;;;;5049096;28;20096;-57
2023/10/26 06:20:42;;;;;;;14.93;11.02;;;10.40;99.90;;;;;;5047492;28;20113;-57
2023/10/26 06:23:07;;;;;;;14.68;11.65;;;10.40;99.90;;;;;;5040616;28;20398;-57
2023/10/26 06:25:38;;;;;;;15.93;12.23;;;10.40;99.90;;;;;;5048937;28;20028;-57
2023/10/26 06:28:04;;;;;;;14.38;10.88;;;10.40;99.90;;;;;;5048527;28;20032;-57
2023/10/26 06:30:31;;;;;;;13.25;10.77;;;10.40;99.90;;;;;;5049039;28;20390;-57
2023/10/26 06:32:58;;;;;;;14.25;10.57;;;10.40;99.90;;;;;;5049269;28;20057;-57
2023/10/26 06:35:24;;;;;;;16.67;11.65;;;10.40;99.90;;;;;;5049253;28;20390;-57
2023/10/26 06:37:50;;;;;;;16.23;11.75;;;10.50;99.90;;;;;;5047232;28;20033;-58
2023/10/26 06:40:15;;;;;;;16.00;11.65;;;10.50;99.90;;;;;;5051669;28;20035;-57
2023/10/26 06:42:41;;;;;;;15.40;12.05;;;10.50;99.90;;;;;;5052888;28;20325;-57
2023/10/26 06:45:08;;;;;;;16.40;11.50;;;10.50;99.90;;;;;;5053213;28;20467;-57
2023/10/26 06:47:33;;;;;;;13.73;10.43;;;10.50;99.90;;;;;;5052872;28;20021;-57
2023/10/26 06:49:59;;;;;;;18.95;12.50;;;10.50;99.90;;;;;;5052863;28;20067;-57
2023/10/26 06:52:25;;;;;;;14.80;12.02;;;10.50;99.90;;;;;;5052171;28;20104;-58
2023/10/26 06:54:51;;;;;;;13.85;11.73;;;10.50;99.90;;;;;;5052427;28;20028;-57
2023/10/26 06:57:17;;;;;;;17.88;12.38;;;10.50;99.90;;;;;;5052571;28;20025;-57
2023/10/26 06:59:43;;;;;;;17.17;12.98;;;10.50;99.90;;;;;;5052572;28;20024;-58
2023/10/26 07:02:10;;;;;;;16.98;12.75;;;10.50;99.90;;;;;;5052622;28;20363;-57
2023/10/26 07:04:36;;;;;;;18.40;13.00;;;10.50;99.90;;;;;;5052536;28;20024;-57
2023/10/26 07:07:01;;;;;;;16.38;12.18;;;10.60;99.90;;;;;;5041631;28;20033;-57
2023/10/26 07:09:27;;;;;;;15.27;11.25;;;10.60;99.90;;;;;;5045034;28;20382;-57
2023/10/26 07:11:52;;;;;;;15.05;11.68;;;10.60;99.90;;;;;;5043476;28;20050;-57
2023/10/26 07:14:18;;;;;;;15.23;11.10;;;10.60;99.90;;;;;;5052360;28;20226;-57
2023/10/26 07:16:44;;;;;;;15.32;10.95;;;10.60;99.90;;;;;;5034458;28;20025;-57
2023/10/26 07:19:10;;;;;;;15.85;11.05;;;10.60;99.90;;;;;;5052422;28;20025;-57
2023/10/26 07:21:36;;;;;;;14.40;10.77;;;10.60;99.90;;;;;;5052331;28;20029;-57
2023/10/26 07:24:02;;;;;;;41.08;28.75;;;10.60;99.90;;;;;;5052702;28;20516;-57
2023/10/26 07:26:28;;;;;;;28.60;15.15;;;10.60;99.90;;;;;;5051969;28;20244;-57
2023/10/26 07:28:55;;;;;;;16.88;12.65;;;10.60;99.90;;;;;;5050785;28;20029;-57
2023/10/26 07:31:21;;;;;;;11.82;9.15;;;10.60;99.90;;;;;;5050981;28;20009;-56
2023/10/26 07:33:47;;;;;;;11.10;7.63;;;10.60;99.90;;;;;;5052202;28;20029;-55
2023/10/26 07:36:13;;;;;;;11.00;7.95;;;10.60;99.90;;;;;;5050122;28;20055;-56
2023/10/26 07:38:38;;;;;;;10.02;7.45;;;10.60;99.90;;;;;;5048425;28;20025;-54
2023/10/26 07:41:05;;;;;;;9.27;7.07;;;10.60;99.90;;;;;;5038632;28;20032;-57
2023/10/26 07:43:31;;;;;;;8.15;6.68;;;10.60;99.90;;;;;;5039290;28;20084;-57
2023/10/26 07:45:56;;;;;;;8.35;6.43;;;10.60;99.90;;;;;;5037667;28;20364;-57
2023/10/26 07:48:22;;;;;;;8.05;6.93;;;10.60;99.90;;;;;;5041633;28;20075;-57
2023/10/26 07:50:48;;;;;;;8.23;5.65;;;10.60;99.90;;;;;;5055223;28;20029;-58
2023/10/26 07:53:15;;;;;;;7.30;5.82;;;10.60;99.90;;;;;;5058708;28;20040;-57
2023/10/26 07:55:40;;;;;;;7.50;6.20;;;10.60;99.90;;;;;;5052661;28;20091;-57
2023/10/26 07:58:06;;;;;;;8.07;6.00;;;10.60;99.90;;;;;;5051459;28;20441;-57
2023/10/26 08:00:32;;;;;;;7.53;6.25;;;10.60;99.90;;;;;;5051672;28;20231;-58
2023/10/26 08:02:59;;;;;;;6.45;5.70;;;10.60;99.90;;;;;;5051525;28;20478;-57
2023/10/26 08:05:25;;;;;;;6.43;5.40;;;10.60;99.90;;;;;;5051341;28;20067;-57
2023/10/26 08:07:52;;;;;;;7.03;5.50;;;10.60;99.90;;;;;;5051372;28;20029;-58
2023/10/26 08:10:17;;;;;;;7.53;5.40;;;10.60;99.90;;;;;;5051582;28;20021;-57
2023/10/26 08:12:43;;;;;;;9.13;5.82;;;10.60;99.90;;;;;;5051382;28;20039;-58
2023/10/26 08:15:09;;;;;;;6.90;5.22;;;10.60;99.90;;;;;;5051432;28;20170;-57
2023/10/26 08:17:35;;;;;;;6.07;4.80;;;10.60;99.90;;;;;;5050922;28;20429;-57
2023/10/26 08:20:07;;;;;;;7.13;5.85;;;10.60;99.90;;;;;;5049140;28;20082;-58
2023/10/26 08:22:33;;;;;;;7.43;5.25;;;10.60;99.90;;;;;;5050680;28;20039;-57
2023/10/26 08:24:59;;;;;;;7.03;6.07;;;10.60;99.90;;;;;;5050374;28;20521;-57
2023/10/26 08:27:25;;;;;;;6.18;5.13;;;10.60;99.90;;;;;;5050770;28;20051;-58
2023/10/26 08:29:51;;;;;;;6.70;5.50;;;10.60;99.90;;;;;;5051117;28;20088;-58
2023/10/26 08:32:16;;;;;;;6.63;5.45;;;10.60;99.90;;;;;;5050936;28;20100;-62
2023/10/26 08:34:44;;;;;;;6.10;4.97;;;10.60;99.90;;;;;;5050821;28;20041;-57
2023/10/26 08:37:09;;;;;;;6.32;5.68;;;10.60;99.90;;;;;;5050817;28;20037;-57
2023/10/26 08:39:35;;;;;;;6.55;5.72;;;10.60;99.90;;;;;;5049922;28;20148;-58
2023/10/26 08:42:01;;;;;;;7.15;5.68;;;10.60;99.90;;;;;;5050258;28;20029;-58
2023/10/26 08:44:28;;;;;;;6.32;4.90;;;10.60;99.90;;;;;;5049915;28;20029;-58
2023/10/26 08:47:08;;;;;;;6.47;5.25;;;10.60;99.90;;;;;;5049645;28;20028;-58
2023/10/26 08:49:34;;;;;;;5.78;5.07;;;10.60;99.90;;;;;;5050245;28;20044;-57
2023/10/26 08:52:00;;;;;;;8.10;6.47;;;10.70;99.90;;;;;;5050134;28;20493;-58
2023/10/26 08:54:26;;;;;;;19.30;13.27;;;10.70;99.90;;;;;;5049931;28;20041;-58
2023/10/26 08:56:53;;;;;;;14.30;10.57;;;10.70;99.90;;;;;;5050099;28;20033;-58
2023/10/26 08:59:18;;;;;;;9.95;7.60;;;10.70;99.90;;;;;;5049312;28;20526;-57
2023/10/26 09:01:47;;;;;;;8.15;6.43;;;10.70;99.90;;;;;;5049868;28;20040;-58
2023/10/26 09:04:14;;;;;;;7.93;6.25;;;10.70;99.90;;;;;;5048969;28;20154;-58
2023/10/26 09:06:44;;;;;;;8.63;6.15;;;10.70;99.90;;;;;;5047486;28;20029;-58
2023/10/26 09:09:10;;;;;;;11.52;7.35;;;10.70;99.90;;;;;;5050375;28;20021;-58
2023/10/26 09:11:35;;;;;;;12.63;7.93;;;10.70;99.90;;;;;;5050343;28;20363;-58
2023/10/26 09:14:15;;;;;;;10.13;7.53;;;10.70;99.90;;;;;;5050182;28;20060;-58
2023/10/26 09:16:43;;;;;;;10.82;7.38;;;10.80;99.90;;;;;;5049897;28;20021;-58
2023/10/26 09:19:09;;;;;;;11.43;7.47;;;10.80;99.90;;;;;;5048930;28;20040;-58
2023/10/26 09:21:53;;;;;;;9.52;7.38;;;10.80;99.90;;;;;;5050056;28;20028;-58
2023/10/26 09:24:19;;;;;;;8.18;6.43;;;10.80;99.90;;;;;;5049775;28;20478;-58
2023/10/26 09:26:44;;;;;;;9.68;7.47;;;10.80;99.90;;;;;;5049843;28;20063;-58
2023/10/26 09:29:10;;;;;;;9.43;7.82;;;10.80;99.90;;;;;;5044121;28;20055;-58
2023/10/26 09:31:49;;;;;;;9.40;7.15;;;10.80;99.90;;;;;;5036140;28;20017;-58
2023/10/26 09:34:16;;;;;;;8.38;7.13;;;10.80;99.90;;;;;;5038255;28;20601;-58
2023/10/26 09:36:41;;;;;;;9.02;7.25;;;10.80;99.90;;;;;;5035703;28;20025;-58
2023/10/26 09:39:08;;;;;;;8.90;7.25;;;10.80;99.90;;;;;;5037281;28;20102;-58
2023/10/26 09:41:35;;;;;;;9.98;7.53;;;10.90;99.90;;;;;;5036353;28;20148;-58
2023/10/26 09:44:01;;;;;;;8.23;6.90;;;10.90;99.90;;;;;;5038707;28;20521;-58
2023/10/26 09:46:26;;;;;;;9.93;7.63;;;10.90;99.90;;;;;;5044970;28;20025;-58
2023/10/26 09:48:52;;;;;;;8.60;6.78;;;11.00;99.90;;;;;;5038936;28;20111;-58
2023/10/26 09:51:20;;;;;;;9.15;7.35;;;11.00;99.90;;;;;;5038382;28;20102;-58
2023/10/26 09:53:47;;;;;;;6.82;5.93;;;11.10;99.90;;;;;;5038201;28;20028;-58
2023/10/26 09:56:20;;;;;;;9.70;6.60;;;11.10;99.90;;;;;;5040133;28;20387;-58
2023/10/26 09:58:45;;;;;;;9.27;6.30;;;11.20;99.90;;;;;;5044005;28;20556;-58
2023/10/26 10:01:32;;;;;;;7.57;6.43;;;11.20;99.90;;;;;;5049405;28;20060;-58
2023/10/26 10:03:58;;;;;;;9.70;6.82;;;11.20;99.90;;;;;;5041336;28;20108;-65
2023/10/26 10:06:45;;;;;;;8.73;6.65;;;11.30;99.90;;;;;;5049015;28;20223;-64
2023/10/26 10:09:11;;;;;;;7.50;6.35;;;11.20;99.90;;;;;;5049064;28;20039;-65
2023/10/26 10:11:38;;;;;;;8.98;6.95;;;11.30;99.90;;;;;;5049225;28;20085;-64
2023/10/26 10:14:04;;;;;;;9.38;7.05;;;11.20;99.90;;;;;;5048301;28;20032;-64
2023/10/26 10:16:36;;;;;;;7.60;6.68;;;11.20;99.90;;;;;;5047608;28;20044;-64
2023/10/26 10:19:29;;;;;;;10.20;7.22;;;11.20;99.90;;;;;;5048887;28;20025;-64
2023/10/26 10:21:55;;;;;;;10.13;8.02;;;11.10;99.90;;;;;;5047777;28;20033;-64
2023/10/26 10:24:43;;;;;;;9.80;7.15;;;11.10;99.90;;;;;;5047698;28;20489;-65
2023/10/26 10:27:10;;;;;;;10.48;8.23;;;11.10;99.90;;;;;;5048802;28;20025;-64
2023/10/26 10:29:36;;;;;;;12.52;9.32;;;11.10;99.90;;;;;;5048974;28;20126;-65
2023/10/26 10:32:02;;;;;;;10.50;8.07;;;11.10;99.90;;;;;;5049254;28;20104;-65
2023/10/26 10:34:31;;;;;;;9.48;7.85;;;11.10;99.90;;;;;;5049288;28;20040;-64
2023/10/26 10:37:13;;;;;;;9.50;7.82;;;11.10;99.90;;;;;;5047556;28;20029;-64
2023/10/26 10:39:59;;;;;;;10.88;8.23;;;11.10;99.90;;;;;;5047441;28;20111;-64
2023/10/26 10:42:25;;;;;;;10.48;8.30;;;11.20;99.90;;;;;;5049000;28;20032;-65
2023/10/26 10:44:52;;;;;;;11.40;8.98;;;11.20;99.90;;;;;;5048815;28;20509;-64
2023/10/26 10:47:17;;;;;;;12.65;9.30;;;11.20;99.90;;;;;;5048576;28;20104;-64
2023/10/26 10:49:43;;;;;;;9.70;7.97;;;11.20;99.90;;;;;;5048820;28;20130;-64
2023/10/26 10:52:13;;;;;;;10.25;7.80;;;11.20;99.90;;;;;;5044110;28;20024;-64
2023/10/26 10:54:39;;;;;;;11.00;8.20;;;11.20;99.90;;;;;;5036494;28;20048;-65
2023/10/26 10:57:05;;;;;;;11.23;8.95;;;11.20;99.90;;;;;;5037382;28;20030;-65
2023/10/26 10:59:30;;;;;;;11.80;9.60;;;11.30;99.90;;;;;;5045724;28;20048;-64
2023/10/26 11:02:10;;;;;;;10.68;8.80;;;11.20;99.90;;;;;;5043660;28;20037;-65
2023/10/26 11:04:51;;;;;;;13.90;10.70;;;11.20;99.90;;;;;;5045625;28;20035;-65
2023/10/26 11:07:17;;;;;;;14.43;10.20;;;11.20;99.90;;;;;;5048177;28;20561;-64
2023/10/26 11:09:45;;;;;;;10.15;8.05;;;11.20;99.90;;;;;;5038677;28;20112;-64
2023/10/26 11:12:11;;;;;;;9.98;8.50;;;11.20;99.90;;;;;;5046046;28;20032;-65
2023/10/26 11:14:50;;;;;;;14.57;9.93;;;11.30;99.90;;;;;;5046804;28;20029;-64
2023/10/26 11:17:20;;;;;;;12.85;9.98;;;11.30;99.90;;;;;;5045520;28;20025;-64
2023/10/26 11:19:46;;;;;;;13.60;10.38;;;11.30;99.90;;;;;;5046867;28;20024;-65
2023/10/26 11:22:14;;;;;;;12.00;9.52;;;11.30;99.90;;;;;;5046549;28;20033;-65
2023/10/26 11:24:41;;;;;;;13.05;9.35;;;11.30;99.90;;;;;;5047105;28;20490;-64
2023/10/26 11:27:12;;;;;;;19.17;13.18;;;11.30;99.90;;;;;;5050952;28;20029;-64
2023/10/26 11:29:38;;;;;;;16.88;11.52;;;11.30;99.90;;;;;;5052498;28;20021;-64
2023/10/26 11:32:20;;;;;;;15.15;11.57;;;11.30;99.90;;;;;;5052215;28;20040;-65
2023/10/26 11:35:13;;;;;;;15.55;11.02;;;11.30;99.90;;;;;;5051738;28;20381;-64
2023/10/26 11:37:48;;;;;;;16.00;10.93;;;11.30;99.90;;;;;;5051747;28;20494;-63
2023/10/26 11:40:16;;;;;;;14.18;12.18;;;11.30;99.90;;;;;;5051978;28;20072;-64
2023/10/26 11:42:50;;;;;;;11.23;8.85;;;11.30;99.90;;;;;;5050767;28;20074;-64
2023/10/26 11:45:21;;;;;;;14.02;10.93;;;11.30;99.90;;;;;;5051929;28;20027;-65
2023/10/26 11:48:00;;;;;;;16.38;11.57;;;11.30;99.90;;;;;;5051939;28;20025;-65
2023/10/26 11:50:36;;;;;;;13.98;10.98;;;11.20;99.90;;;;;;5052237;28;20578;-64
2023/10/26 11:53:03;;;;;;;13.48;9.43;;;11.20;99.90;;;;;;5051926;28;20490;-65
2023/10/26 11:55:32;;;;;;;10.57;8.48;;;11.20;99.90;;;;;;5051563;28;20090;-65
2023/10/26 11:58:01;;;;;;;24.58;14.02;;;11.20;99.90;;;;;;5051690;28;20474;-65
2023/10/26 12:00:29;;;;;;;12.43;9.85;;;11.30;99.90;;;;;;5052063;28;20029;-64
2023/10/26 12:02:56;;;;;;;13.45;8.98;;;11.30;99.90;;;;;;5049625;28;20036;-64
2023/10/26 12:05:23;;;;;;;14.43;9.98;;;11.30;99.90;;;;;;5048700;28;20029;-65
2023/10/26 12:07:49;;;;;;;13.25;8.57;;;11.30;99.90;;;;;;5050300;28;20023;-63
2023/10/26 12:10:16;;;;;;;10.30;8.15;;;11.30;99.90;;;;;;5050697;28;20017;-65
2023/10/26 12:12:43;;;;;;;11.25;8.30;;;11.30;99.90;;;;;;5050551;28;20021;-64
2023/10/26 12:15:09;;;;;;;9.73;7.93;;;11.40;99.90;;;;;;5049315;28;20037;-65
2023/10/26 12:17:35;;;;;;;8.77;7.15;;;11.40;99.90;;;;;;5050504;28;20061;-64
2023/10/26 12:20:01;;;;;;;9.05;7.10;;;11.40;99.90;;;;;;5051473;28;20060;-64
2023/10/26 12:22:26;;;;;;;11.10;8.70;;;11.40;99.90;;;;;;5049848;28;20029;-64
2023/10/26 12:24:52;;;;;;;8.23;7.32;;;11.40;99.90;;;;;;5051124;28;20456;-65
2023/10/26 12:27:18;;;;;;;9.05;7.93;;;11.40;99.90;;;;;;5051050;28;20120;-65
2023/10/26 12:29:45;;;;;;;11.90;7.88;;;11.50;99.90;;;;;;5050168;28;20027;-65
2023/10/26 12:32:11;;;;;;;8.90;7.25;;;11.40;99.90;;;;;;5050179;28;20017;-65